Dominia — ICFW — position and weather

sailwx.info

Track history (hours):
 
Tides and Currents Weather Stations Pressure Air Temp Water Temp Dewpoint Dewpoint Depression Visibility Wind Speed Wind Dir Waves Ship Positions

Dominia

Last reported at 2016-Jun-18 16:33 UTC. Time now 2016-Jun-25 05:22 UTC.
Position N 34°29' E 013°15'.

Length 176 m; draft 10.8 m.

Type: Tanker. MMSI: 247273400.

Date/timePositionNaut miles runAvg speedWind from/ knotsBaromVisibWave heightAir tempDewpointWater temp
2016-Jun-18 16:33N 34°29' E 013°15'1111.4
2016-Jun-18 15:33N 34°32' E 013°29'1211.7
2016-Jun-18 14:33N 34°34' E 013°43'1512.0
2016-Jun-18 13:17N 34°38' E 014°01'3311.6
2016-Jun-18 10:26N 34°46' E 014°40'2311.2
2016-Jun-18 08:23N 34°51' E 015°07'1012.7
2016-Jun-18 07:33N 34°53' E 015°20'1212.1
2016-Jun-18 06:33N 34°56' E 015°34'393 9.1
2016-Jun-16 11:33N 36°33' E 023°23'10 9.8
2016-Jun-16 10:33N 36°41' E 023°28'1010.0
2016-Jun-16 09:32N 36°50' E 023°35'1010.1
2016-Jun-16 08:32N 36°59' E 023°41'1211.8
2016-Jun-16 07:33N 37°09' E 023°48'1313.5
2016-Jun-16 06:33N 37°21' E 023°57'1313.3
2016-Jun-16 05:33N 37°32' E 024°06'1612.3
2016-Jun-16 04:15N 37°44' E 024°19'1212.5
2016-Jun-16 03:18N 37°51' E 024°31'12012.0
2016-Jun-15 17:18N 39°38' E 025°40'1012.2
2016-Jun-15 16:29N 39°47' E 025°45'1111.8
2016-Jun-15 15:33N 39°57' E 025°53'1211.5
2016-Jun-15 14:33N 40°01' E 026°07'140 8.6
2016-Jun-14 22:21N 40°57' E 028°55'186 9.4
2016-Jun-14 02:33N 42°36' E 032°27'1211.9
2016-Jun-14 01:33N 42°41' E 032°41'8711.8
2016-Jun-13 18:11N 43°21' E 034°27'812.0
2016-Jun-13 17:32N 43°24' E 034°37'1211.8
2016-Jun-13 16:33N 43°29' E 034°51'1211.8
2016-Jun-13 15:33N 43°34' E 035°05'1211.7
2016-Jun-13 14:33N 43°40' E 035°20'1211.6
2016-Jun-13 13:33N 43°45' E 035°34'1211.5
2016-Jun-13 12:32N 43°51' E 035°48'1211.8
2016-Jun-13 11:33N 43°56' E 036°03'1211.9
2016-Jun-13 10:31N 44°02' E 036°18'1211.8
2016-Jun-13 09:29N 44°07' E 036°33'1111.7
2016-Jun-13 08:32N 44°12' E 036°47'2311.5
2016-Jun-13 06:32N 44°22' E 037°15'1212.0
2016-Jun-13 05:33N 44°28' E 037°30'1212.0
2016-Jun-13 04:33N 44°35' E 037°44'8 8.5
2016-Jun-13 03:33N 44°42' E 037°50'1 0.7
2016-Jun-13 02:31N 44°43' E 037°50'0 0.0
2016-Jun-13 01:31N 44°43' E 037°50'0 0.0
2016-Jun-13 00:31N 44°43' E 037°50'0 0.0
2016-Jun-12 23:31N 44°43' E 037°50'0 0.0
2016-Jun-12 22:31N 44°43' E 037°50'0 0.0
2016-Jun-12 21:31N 44°43' E 037°50'0 0.0
2016-Jun-12 20:31N 44°43' E 037°50'0 0.0
2016-Jun-12 19:31N 44°43' E 037°50'0 0.0
2016-Jun-12 18:31N 44°43' E 037°50'0 0.0
2016-Jun-12 17:31N 44°43' E 037°50'0 0.0
2016-Jun-12 16:31N 44°43' E 037°50'0 0.0
2016-Jun-12 15:31N 44°43' E 037°50'0 0.0
2016-Jun-12 14:31N 44°43' E 037°50'0 0.0
2016-Jun-12 13:28N 44°43' E 037°50'0 0.0
2016-Jun-12 12:31N 44°43' E 037°50'0 0.0
2016-Jun-12 11:31N 44°43' E 037°50'0 0.0
2016-Jun-12 10:31N 44°43' E 037°50'0 0.0
2016-Jun-12 09:31N 44°43' E 037°50'0 0.0
2016-Jun-12 08:31N 44°43' E 037°50'0 0.0
2016-Jun-12 07:31N 44°43' E 037°50'0 0.0
2016-Jun-12 06:31N 44°43' E 037°50'0 0.0
2016-Jun-12 04:31N 44°43' E 037°50'0 0.0
2016-Jun-12 03:31N 44°43' E 037°50'0 0.0
2016-Jun-12 02:31N 44°43' E 037°50'0 0.0
2016-Jun-12 01:31N 44°43' E 037°50'0 0.0
2016-Jun-12 00:31N 44°43' E 037°50'0 0.0
2016-Jun-11 23:31N 44°43' E 037°50'0 0.0
2016-Jun-11 22:31N 44°43' E 037°50'0 0.0
2016-Jun-11 21:31N 44°43' E 037°50'0 0.0
2016-Jun-11 20:31N 44°43' E 037°50'0 0.0
2016-Jun-11 19:25N 44°43' E 037°50'0 0.0
2016-Jun-11 18:58N 44°43' E 037°50'0 0.0
2016-Jun-11 18:31N 44°43' E 037°50'0 0.0
2016-Jun-11 17:28N 44°43' E 037°50'0 0.0
2016-Jun-11 16:31N 44°43' E 037°50'0 0.0
2016-Jun-11 15:31N 44°43' E 037°50'0 0.0
2016-Jun-11 14:31N 44°43' E 037°50'0 0.0
2016-Jun-11 13:31N 44°43' E 037°50'0 0.0
2016-Jun-11 12:31N 44°43' E 037°50'0 0.0
2016-Jun-11 11:31N 44°43' E 037°50'0 0.0
2016-Jun-11 10:31N 44°43' E 037°50'0 0.0
2016-Jun-11 09:31N 44°43' E 037°50'0 0.0
2016-Jun-11 08:31N 44°43' E 037°50'0 0.0
2016-Jun-11 07:31N 44°43' E 037°50'0 0.0
2016-Jun-11 06:31N 44°43' E 037°50'0 0.0
2016-Jun-11 05:31N 44°43' E 037°50'0 0.0
2016-Jun-11 04:31N 44°43' E 037°50'0 0.0
2016-Jun-11 03:31N 44°43' E 037°50'0 0.0
2016-Jun-11 02:31N 44°43' E 037°50'0 0.0
2016-Jun-11 01:31N 44°43' E 037°50'0 0.2
2016-Jun-11 00:34N 44°43' E 037°50'6 6.1
2016-Jun-10 23:34N 44°37' E 037°52'7 6.8
2016-Jun-10 22:34N 44°31' E 037°47'8 7.9
2016-Jun-10 21:33N 44°27' E 037°37'1110.6
2016-Jun-10 20:33N 44°19' E 037°48'2613.2
2016-Jun-10 18:33N 44°08' E 038°21'1312.9
2016-Jun-10 17:33N 44°02' E 038°37'1312.6
2016-Jun-10 16:33N 43°58' E 038°53'1110.5
2016-Jun-10 15:33N 44°05' E 039°04'0 0.5
2016-Jun-10 14:33N 44°05' E 039°04'0 0.0
2016-Jun-10 13:33N 44°05' E 039°04'0 0.0
2016-Jun-10 12:33N 44°05' E 039°04'0 0.0
2016-Jun-10 11:33N 44°05' E 039°04'0 0.0
2016-Jun-10 10:33N 44°05' E 039°04'0 0.0
2016-Jun-10 09:33N 44°05' E 039°04'0 0.0
2016-Jun-10 08:33N 44°05' E 039°04'0 0.0
2016-Jun-10 07:33N 44°05' E 039°04'0 0.0
2016-Jun-10 06:33N 44°05' E 039°04'0 0.0
2016-Jun-10 05:33N 44°05' E 039°04'0 0.0
2016-Jun-10 04:33N 44°05' E 039°04'0 0.0
2016-Jun-10 03:33N 44°05' E 039°04'0 0.0
2016-Jun-10 02:33N 44°05' E 039°04'0 0.0
2016-Jun-10 01:33N 44°05' E 039°04'0 0.0
2016-Jun-10 00:33N 44°05' E 039°04'0 0.0
2016-Jun-09 23:33N 44°05' E 039°04'0 0.0
2016-Jun-09 22:33N 44°05' E 039°04'0 0.0
2016-Jun-09 21:33N 44°05' E 039°04'0 0.0
2016-Jun-09 20:33N 44°05' E 039°04'0 0.0
2016-Jun-09 19:33N 44°05' E 039°04'2 2.0
2016-Jun-09 18:34N 44°03' E 039°04'2 1.7
2016-Jun-09 17:33N 44°02' E 039°04'3 3.1
2016-Jun-09 16:33N 43°59' E 039°01'8 8.1
2016-Jun-09 15:33N 43°57' E 038°50'8 8.4
2016-Jun-09 14:33N 44°00' E 038°39'1312.5
2016-Jun-09 13:32N 44°05' E 038°22'1713.4
2016-Jun-09 12:17N 44°11' E 038°01'1413.3
2016-Jun-09 11:15N 44°15' E 037°42'912.2
2016-Jun-09 10:33N 44°18' E 037°31'1 1.3
2016-Jun-09 09:31N 44°19' E 037°32'2 1.4
2016-Jun-09 08:19N 44°21' E 037°33'2530.3
2016-Jun-09 07:29N 44°36' E 038°02'2426.3
2016-Jun-09 06:33N 44°23' E 037°32'1211.5
2016-Jun-09 05:33N 44°19' E 037°17'  
Track history (hours):
 
Tides and Currents Weather Stations Pressure Air Temp Water Temp Dewpoint Dewpoint Depression Visibility Wind Speed Wind Dir Waves Ship Positions

Dominia

Last reported at 2016-Jun-18 16:33 UTC. Time now 2016-Jun-25 05:22 UTC.
Position N 34°29' E 013°15'.

Length 176 m; draft 10.8 m.

Type: Tanker. MMSI: 247273400.

Date/timePositionNaut miles runAvg speedWind from/ knotsBaromVisibWave heightAir tempDewpointWater temp
2016-Jun-18 16:33N 34°29' E 013°15'1111.4
2016-Jun-18 15:33N 34°32' E 013°29'1211.7
2016-Jun-18 14:33N 34°34' E 013°43'1512.0
2016-Jun-18 13:17N 34°38' E 014°01'3311.6
2016-Jun-18 10:26N 34°46' E 014°40'2311.2
2016-Jun-18 08:23N 34°51' E 015°07'1012.7
2016-Jun-18 07:33N 34°53' E 015°20'1212.1
2016-Jun-18 06:33N 34°56' E 015°34'393 9.1
2016-Jun-16 11:33N 36°33' E 023°23'10 9.8
2016-Jun-16 10:33N 36°41' E 023°28'1010.0
2016-Jun-16 09:32N 36°50' E 023°35'1010.1
2016-Jun-16 08:32N 36°59' E 023°41'1211.8
2016-Jun-16 07:33N 37°09' E 023°48'1313.5
2016-Jun-16 06:33N 37°21' E 023°57'1313.3
2016-Jun-16 05:33N 37°32' E 024°06'1612.3
2016-Jun-16 04:15N 37°44' E 024°19'1212.5
2016-Jun-16 03:18N 37°51' E 024°31'12012.0
2016-Jun-15 17:18N 39°38' E 025°40'1012.2
2016-Jun-15 16:29N 39°47' E 025°45'1111.8
2016-Jun-15 15:33N 39°57' E 025°53'1211.5
2016-Jun-15 14:33N 40°01' E 026°07'140 8.6
2016-Jun-14 22:21N 40°57' E 028°55'186 9.4
2016-Jun-14 02:33N 42°36' E 032°27'1211.9
2016-Jun-14 01:33N 42°41' E 032°41'8711.8
2016-Jun-13 18:11N 43°21' E 034°27'812.0
2016-Jun-13 17:32N 43°24' E 034°37'1211.8
2016-Jun-13 16:33N 43°29' E 034°51'1211.8
2016-Jun-13 15:33N 43°34' E 035°05'1211.7
2016-Jun-13 14:33N 43°40' E 035°20'1211.6
2016-Jun-13 13:33N 43°45' E 035°34'1211.5
2016-Jun-13 12:32N 43°51' E 035°48'1211.8
2016-Jun-13 11:33N 43°56' E 036°03'1211.9
2016-Jun-13 10:31N 44°02' E 036°18'1211.8
2016-Jun-13 09:29N 44°07' E 036°33'1111.7
2016-Jun-13 08:32N 44°12' E 036°47'2311.5
2016-Jun-13 06:32N 44°22' E 037°15'1212.0
2016-Jun-13 05:33N 44°28' E 037°30'1212.0
2016-Jun-13 04:33N 44°35' E 037°44'8 8.5
2016-Jun-13 03:33N 44°42' E 037°50'1 0.7
2016-Jun-13 02:31N 44°43' E 037°50'0 0.0
2016-Jun-13 01:31N 44°43' E 037°50'0 0.0
2016-Jun-13 00:31N 44°43' E 037°50'0 0.0
2016-Jun-12 23:31N 44°43' E 037°50'0 0.0
2016-Jun-12 22:31N 44°43' E 037°50'0 0.0
2016-Jun-12 21:31N 44°43' E 037°50'0 0.0
2016-Jun-12 20:31N 44°43' E 037°50'0 0.0
2016-Jun-12 19:31N 44°43' E 037°50'0 0.0
2016-Jun-12 18:31N 44°43' E 037°50'0 0.0
2016-Jun-12 17:31N 44°43' E 037°50'0 0.0
2016-Jun-12 16:31N 44°43' E 037°50'0 0.0
2016-Jun-12 15:31N 44°43' E 037°50'0 0.0
2016-Jun-12 14:31N 44°43' E 037°50'0 0.0
2016-Jun-12 13:28N 44°43' E 037°50'0 0.0
2016-Jun-12 12:31N 44°43' E 037°50'0 0.0
2016-Jun-12 11:31N 44°43' E 037°50'0 0.0
2016-Jun-12 10:31N 44°43' E 037°50'0 0.0
2016-Jun-12 09:31N 44°43' E 037°50'0 0.0
2016-Jun-12 08:31N 44°43' E 037°50'0 0.0
2016-Jun-12 07:31N 44°43' E 037°50'0 0.0
2016-Jun-12 06:31N 44°43' E 037°50'0 0.0
2016-Jun-12 04:31N 44°43' E 037°50'0 0.0
2016-Jun-12 03:31N 44°43' E 037°50'0 0.0
2016-Jun-12 02:31N 44°43' E 037°50'0 0.0
2016-Jun-12 01:31N 44°43' E 037°50'0 0.0
2016-Jun-12 00:31N 44°43' E 037°50'0 0.0
2016-Jun-11 23:31N 44°43' E 037°50'0 0.0
2016-Jun-11 22:31N 44°43' E 037°50'0 0.0
2016-Jun-11 21:31N 44°43' E 037°50'0 0.0
2016-Jun-11 20:31N 44°43' E 037°50'0 0.0
2016-Jun-11 19:25N 44°43' E 037°50'0 0.0
2016-Jun-11 18:58N 44°43' E 037°50'0 0.0
2016-Jun-11 18:31N 44°43' E 037°50'0 0.0
2016-Jun-11 17:28N 44°43' E 037°50'0 0.0
2016-Jun-11 16:31N 44°43' E 037°50'0 0.0
2016-Jun-11 15:31N 44°43' E 037°50'0 0.0
2016-Jun-11 14:31N 44°43' E 037°50'0 0.0
2016-Jun-11 13:31N 44°43' E 037°50'0 0.0
2016-Jun-11 12:31N 44°43' E 037°50'0 0.0
2016-Jun-11 11:31N 44°43' E 037°50'0 0.0
2016-Jun-11 10:31N 44°43' E 037°50'0 0.0
2016-Jun-11 09:31N 44°43' E 037°50'0 0.0
2016-Jun-11 08:31N 44°43' E 037°50'0 0.0
2016-Jun-11 07:31N 44°43' E 037°50'0 0.0
2016-Jun-11 06:31N 44°43' E 037°50'0 0.0
2016-Jun-11 05:31N 44°43' E 037°50'0 0.0
2016-Jun-11 04:31N 44°43' E 037°50'0 0.0
2016-Jun-11 03:31N 44°43' E 037°50'0 0.0
2016-Jun-11 02:31N 44°43' E 037°50'0 0.0
2016-Jun-11 01:31N 44°43' E 037°50'0 0.2
2016-Jun-11 00:34N 44°43' E 037°50'6 6.1
2016-Jun-10 23:34N 44°37' E 037°52'7 6.8
2016-Jun-10 22:34N 44°31' E 037°47'8 7.9
2016-Jun-10 21:33N 44°27' E 037°37'1110.6
2016-Jun-10 20:33N 44°19' E 037°48'2613.2
2016-Jun-10 18:33N 44°08' E 038°21'1312.9
2016-Jun-10 17:33N 44°02' E 038°37'1312.6
2016-Jun-10 16:33N 43°58' E 038°53'1110.5
2016-Jun-10 15:33N 44°05' E 039°04'0 0.5
2016-Jun-10 14:33N 44°05' E 039°04'0 0.0
2016-Jun-10 13:33N 44°05' E 039°04'0 0.0
2016-Jun-10 12:33N 44°05' E 039°04'0 0.0
2016-Jun-10 11:33N 44°05' E 039°04'0 0.0
2016-Jun-10 10:33N 44°05' E 039°04'0 0.0
2016-Jun-10 09:33N 44°05' E 039°04'0 0.0
2016-Jun-10 08:33N 44°05' E 039°04'0 0.0
2016-Jun-10 07:33N 44°05' E 039°04'0 0.0
2016-Jun-10 06:33N 44°05' E 039°04'0 0.0
2016-Jun-10 05:33N 44°05' E 039°04'0 0.0
2016-Jun-10 04:33N 44°05' E 039°04'0 0.0
2016-Jun-10 03:33N 44°05' E 039°04'0 0.0
2016-Jun-10 02:33N 44°05' E 039°04'0 0.0
2016-Jun-10 01:33N 44°05' E 039°04'0 0.0
2016-Jun-10 00:33N 44°05' E 039°04'0 0.0
2016-Jun-09 23:33N 44°05' E 039°04'0 0.0
2016-Jun-09 22:33N 44°05' E 039°04'0 0.0
2016-Jun-09 21:33N 44°05' E 039°04'0 0.0
2016-Jun-09 20:33N 44°05' E 039°04'0 0.0
2016-Jun-09 19:33N 44°05' E 039°04'2 2.0
2016-Jun-09 18:34N 44°03' E 039°04'2 1.7
2016-Jun-09 17:33N 44°02' E 039°04'3 3.1
2016-Jun-09 16:33N 43°59' E 039°01'8 8.1
2016-Jun-09 15:33N 43°57' E 038°50'8 8.4
2016-Jun-09 14:33N 44°00' E 038°39'1312.5
2016-Jun-09 13:32N 44°05' E 038°22'1713.4
2016-Jun-09 12:17N 44°11' E 038°01'1413.3
2016-Jun-09 11:15N 44°15' E 037°42'912.2
2016-Jun-09 10:33N 44°18' E 037°31'1 1.3
2016-Jun-09 09:31N 44°19' E 037°32'2 1.4
2016-Jun-09 08:19N 44°21' E 037°33'2530.3
2016-Jun-09 07:29N 44°36' E 038°02'2426.3
2016-Jun-09 06:33N 44°23' E 037°32'1211.5
2016-Jun-09 05:33N 44°19' E 037°17'  

Dump ship's entire track history